Time;durP1;ratioP1;P1;durP2;ratioP2;P2;SDS_P1;SDS_P2;PMS_P1;PMS_P2;Temp;Humidity;BMP_temperature;BMP_pressure;BME280_temperature;BME280_humidity;BME280_pressure;Samples;Min_cycle;Max_cycle;Signal;HPM_P1;HPM_P2
2022/07/29 00:01:04;;;;;;;2.55;1.50;;;;;;;16.63;100.00;164916.41;5028671;28;20049;-60
2022/07/29 00:03:29;;;;;;;5.97;1.77;;;;;;;16.64;100.00;164917.78;5023423;28;20034;-60
2022/07/29 00:05:55;;;;;;;5.57;1.88;;;;;;;16.65;100.00;164920.44;5020538;28;20056;-60
2022/07/29 00:08:20;;;;;;;5.85;1.48;;;;;;;16.63;100.00;164916.41;5029820;28;20032;-61
2022/07/29 00:10:46;;;;;;;4.60;1.65;;;;;;;16.59;100.00;164904.19;5029286;28;20443;-60
2022/07/29 00:13:11;;;;;;;2.63;1.73;;;;;;;16.59;100.00;164904.19;5030708;28;20029;-61
2022/07/29 00:15:37;;;;;;;5.63;1.40;;;;;;;16.57;100.00;164898.81;5016258;28;20037;-60
2022/07/29 00:18:02;;;;;;;3.38;1.33;;;;;;;16.57;100.00;164898.81;5011080;28;20041;-61
2022/07/29 00:20:27;;;;;;;2.40;1.73;;;;;;;16.57;100.00;164898.81;5026908;28;20378;-61
2022/07/29 00:22:53;;;;;;;6.65;1.77;;;;;;;16.54;100.00;164890.66;5018242;28;20034;-63
2022/07/29 00:25:18;;;;;;;2.63;1.45;;;;;;;16.53;100.00;164889.28;5009230;28;20497;-63
2022/07/29 00:27:45;;;;;;;1.52;1.17;;;;;;;16.54;100.00;164890.66;5029343;28;20132;-63
2022/07/29 00:30:11;;;;;;;7.75;2.72;;;;;;;16.57;100.00;164898.81;5030687;28;20040;-63
2022/07/29 00:32:37;;;;;;;6.45;1.83;;;;;;;16.50;100.00;164882.53;5033969;28;20029;-62
2022/07/29 00:37:47;;;;;;;3.80;1.20;;;;;;;16.42;100.00;164859.50;5014001;28;20068;-63
2022/07/29 00:40:13;;;;;;;3.72;2.00;;;;;;;16.36;100.00;164844.59;5012783;28;20401;-62
2022/07/29 00:42:45;;;;;;;11.13;2.28;;;;;;;16.34;100.00;164839.22;5014136;28;20022;-62
2022/07/29 00:45:11;;;;;;;2.17;1.50;;;;;;;16.35;100.00;164841.88;5012739;28;20054;-61
2022/07/29 00:47:37;;;;;;;3.95;1.88;;;;;;;16.30;100.00;164828.34;5024547;28;20044;-61
2022/07/29 00:50:04;;;;;;;3.38;1.88;;;;;;;16.29;100.00;164827.03;5032509;28;20160;-61
2022/07/29 00:52:30;;;;;;;11.05;2.05;;;;;;;16.30;100.00;164828.34;5033254;28;20865;-61
2022/07/29 00:54:56;;;;;;;2.50;1.85;;;;;;;16.26;100.00;164817.53;5013181;28;20038;-61
2022/07/29 00:57:21;;;;;;;6.00;1.80;;;;;;;16.24;100.00;164813.44;5029118;28;20064;-60
2022/07/29 00:59:47;;;;;;;8.50;2.58;;;;;;;16.23;100.00;164809.41;5032181;28;20041;-61
2022/07/29 01:02:12;;;;;;;5.78;2.47;;;;;;;16.25;100.00;164814.81;5022956;28;20115;-61
2022/07/29 01:04:38;;;;;;;3.35;1.92;;;;;;;16.23;100.00;164810.78;5012811;28;20033;-61
2022/07/29 01:07:04;;;;;;;5.10;1.65;;;;;;;16.16;100.00;164791.75;5014239;28;20504;-60
2022/07/29 01:09:32;;;;;;;1.80;1.63;;;;;;;16.11;100.00;164779.63;5011893;28;20190;-60
2022/07/29 01:11:58;;;;;;;6.63;1.92;;;;;;;16.06;100.00;164766.03;5013889;28;20029;-60
2022/07/29 01:14:25;;;;;;;5.93;1.60;;;;;;;16.01;100.00;164752.53;5024221;28;20022;-61
2022/07/29 01:17:13;;;;;;;6.60;3.35;;;;;;;15.90;100.00;164724.09;5033142;28;20035;-59
2022/07/29 01:19:51;;;;;;;5.13;1.75;;;;;;;15.93;100.00;164730.84;5032347;28;20446;-59
2022/07/29 01:22:30;;;;;;;6.32;2.03;;;;;;;15.94;100.00;164733.56;5031983;28;20040;-60
2022/07/29 01:25:06;;;;;;;10.93;2.25;;;;;;;15.91;100.00;164725.41;5031001;28;20052;-60
2022/07/29 01:27:42;;;;;;;3.13;1.63;;;;;;;15.83;100.00;164705.13;5032847;28;20098;-60
2022/07/29 01:30:08;;;;;;;6.43;2.10;;;;;;;15.79;100.00;164694.22;5031478;28;20041;-60
2022/07/29 01:32:37;;;;;;;7.38;2.78;;;;;;;15.74;100.00;164682.06;5033048;28;20042;-60
2022/07/29 01:35:08;;;;;;;5.68;2.67;;;;;;;15.71;100.00;164673.94;5031375;28;20041;-60
2022/07/29 01:37:48;;;;;;;3.65;2.35;;;;;;;15.44;100.00;164603.56;5032568;28;20056;-60
2022/07/29 01:40:35;;;;;;;3.83;2.28;;;;;;;15.65;100.00;164659.03;5020776;28;20605;-60
2022/07/29 01:43:09;;;;;;;2.95;1.95;;;;;;;15.61;100.00;164648.22;5013266;28;20205;-60
2022/07/29 01:45:40;;;;;;;6.30;2.30;;;;;;;15.64;100.00;164656.31;5015537;28;20453;-60
2022/07/29 01:48:26;;;;;;;3.28;1.90;;;;;;;15.58;100.00;164638.75;5013419;28;20438;-60
2022/07/29 01:50:56;;;;;;;5.03;1.80;;;;;;;15.57;100.00;164636.03;5014481;28;20044;-60
2022/07/29 01:53:31;;;;;;;3.13;2.33;;;;;;;15.49;100.00;164617.06;5032166;28;20032;-60
2022/07/29 01:55:59;;;;;;;4.65;2.22;;;;;;;15.51;100.00;164622.50;5029254;28;20103;-60
2022/07/29 01:58:25;;;;;;;;;;;;;;;15.50;100.00;164619.78;5032948;28;20026;-60
2022/07/29 02:00:52;;;;;;;10.00;2.80;;;;;;;15.44;100.00;164603.56;5014889;28;19983;-60
2022/07/29 02:03:18;;;;;;;3.30;1.63;;;;;;;15.38;100.00;164587.25;5012451;28;20474;-60
2022/07/29 02:05:46;;;;;;;7.13;2.25;;;;;;;15.32;100.00;164571.03;5011471;28;20061;-60
2022/07/29 02:08:13;;;;;;;5.40;1.80;;;;;;;15.36;100.00;164581.88;5012307;28;20434;-60
2022/07/29 02:10:39;;;;;;;3.53;2.20;;;;;;;15.35;100.00;164579.16;5012935;28;20615;-61
2022/07/29 02:13:06;;;;;;;3.88;2.00;;;;;;;15.34;100.00;164576.47;5032348;28;20021;-61
2022/07/29 02:15:34;;;;;;;2.25;1.80;;;;;;;15.29;100.00;164562.94;5024945;28;20453;-62
2022/07/29 02:18:09;;;;;;;5.75;2.03;;;;;;;15.29;100.00;164564.28;5025101;28;20496;-62
2022/07/29 02:20:37;;;;;;;4.57;1.95;;;;;;;15.33;100.00;164573.75;5030004;28;20037;-62
2022/07/29 02:23:04;;;;;;;3.05;2.30;;;;;;;15.28;100.00;164560.22;5011854;28;20484;-61
2022/07/29 02:25:31;;;;;;;5.65;2.75;;;;;;;15.28;100.00;164560.22;5013118;28;20098;-60
2022/07/29 02:27:58;;;;;;;5.45;2.67;;;;;;;15.23;100.00;164549.38;5031987;28;20050;-60
2022/07/29 02:30:25;;;;;;;35.72;3.15;;;;;;;15.21;100.00;164542.59;5029963;28;20103;-60
2022/07/29 02:32:51;;;;;;;8.00;3.80;;;;;;;15.20;100.00;164541.28;5015187;28;20116;-60
2022/07/29 02:35:18;;;;;;;7.88;2.10;;;;;;;15.22;100.00;164545.31;5010492;28;20046;-60
2022/07/29 02:37:45;;;;;;;8.25;2.63;;;;;;;15.19;100.00;164538.56;5011887;28;20159;-61
2022/07/29 02:40:15;;;;;;;3.88;2.05;;;;;;;15.16;100.00;164530.41;5024589;28;20046;-61
2022/07/29 02:42:43;;;;;;;2.13;1.92;;;;;;;15.18;100.00;164535.84;5030749;28;20032;-59
2022/07/29 02:45:09;;;;;;;9.63;2.58;;;;;;;15.15;100.00;164527.72;5010405;28;20387;-60
2022/07/29 02:47:41;;;;;;;4.88;2.53;;;;;;;15.13;100.00;164522.31;5011735;28;20033;-59
2022/07/29 02:50:15;;;;;;;3.13;1.85;;;;;;;15.12;100.00;164519.59;5030206;28;20045;-59
2022/07/29 02:52:58;;;;;;;2.80;2.13;;;;;;;15.07;100.00;164506.09;5013061;28;20057;-60
2022/07/29 02:55:31;;;;;;;3.55;2.25;;;;;;;15.00;100.00;164488.47;5009992;28;20052;-60
2022/07/29 02:58:06;;;;;;;5.38;1.98;;;;;;;15.01;100.00;164489.81;5012126;28;20034;-60
2022/07/29 03:00:36;;;;;;;2.78;2.55;;;;;;;15.38;100.00;164588.66;5013161;28;20040;-60
2022/07/29 03:03:05;;;;;;;5.90;2.10;;;;;;;14.97;100.00;164479.00;5031151;28;20149;-60
2022/07/29 03:05:30;;;;;;;;;;;;;;;14.97;100.00;164479.00;5021285;28;20445;-60
2022/07/29 03:08:00;;;;;;;5.57;2.20;;;;;;;14.97;100.00;164479.00;5023021;28;19920;-60
2022/07/29 03:10:26;;;;;;;4.20;2.08;;;;;;;14.97;100.00;164480.34;5021265;28;20042;-60
2022/07/29 03:12:52;;;;;;;13.45;2.95;;;;;;;14.99;100.00;164484.44;5011670;28;20032;-60
2022/07/29 03:15:19;;;;;;;4.32;1.90;;;;;;;14.94;100.00;164470.88;5009718;28;20402;-60
2022/07/29 03:17:45;;;;;;;4.10;2.30;;;;;;;14.91;100.00;164465.50;5011537;28;20048;-60
2022/07/29 03:20:12;;;;;;;3.60;2.00;;;;;;;14.84;100.00;164446.53;5009763;28;20133;-60
2022/07/29 03:22:46;;;;;;;7.65;2.20;;;;;;;14.84;100.00;164446.53;5027103;28;20112;-60
2022/07/29 03:25:13;;;;;;;6.10;1.85;;;;;;;14.80;100.00;164435.69;5012337;28;20038;-60
2022/07/29 03:27:39;;;;;;;6.78;3.38;;;;;;;14.81;100.00;164438.41;5011242;28;20335;-60
2022/07/29 03:30:06;;;;;;;4.80;2.45;;;;;;;14.82;100.00;164441.13;5009568;28;20045;-60
2022/07/29 03:32:31;;;;;;;2.72;2.22;;;;;;;14.76;100.00;164424.88;5028225;28;20473;-60
2022/07/29 03:34:56;;;;;;;5.90;1.90;;;;;;;14.74;100.00;164420.78;5028787;28;20037;-60
2022/07/29 03:37:22;;;;;;;5.18;2.55;;;;;;;14.74;100.00;164420.78;5029722;28;20025;-61
2022/07/29 03:39:49;;;;;;;2.28;1.85;;;;;;;14.71;100.00;164412.69;5029527;28;20037;-60
2022/07/29 03:42:17;;;;;;;5.60;2.55;;;;;;;14.74;100.00;164419.47;5030517;28;20428;-61
2022/07/29 03:44:47;;;;;;;7.00;2.08;;;;;;;14.76;100.00;164424.88;5028787;28;20519;-61
2022/07/29 03:47:14;;;;;;;2.92;1.85;;;;;;;14.75;100.00;164422.16;5025677;28;20037;-61
2022/07/29 03:49:40;;;;;;;5.97;2.80;;;;;;;14.70;100.00;164408.66;5010739;28;20038;-61
2022/07/29 03:52:06;;;;;;;4.07;2.00;;;;;;;14.66;100.00;164397.81;5022630;28;20025;-59
2022/07/29 03:54:31;;;;;;;6.75;3.10;;;;;;;14.65;100.00;164395.03;5027190;28;20079;-61
2022/07/29 03:57:00;;;;;;;4.10;2.15;;;;;;;14.65;100.00;164395.03;5026828;28;20334;-58
2022/07/29 03:59:27;;;;;;;4.75;2.20;;;;;;;14.68;100.00;164403.22;5024278;28;20061;-60
2022/07/29 04:01:53;;;;;;;2.88;2.65;;;;;;;14.66;100.00;164399.19;5020084;28;20029;-60
2022/07/29 04:04:18;;;;;;;4.63;2.63;;;;;;;14.56;100.00;164373.38;5029238;28;20038;-60
2022/07/29 04:06:46;;;;;;;7.10;3.17;;;;;;;14.55;100.00;164370.72;5016916;28;20063;-61
2022/07/29 04:09:12;;;;;;;2.97;2.58;;;;;;;14.56;100.00;164372.06;5025392;28;20626;-61
2022/07/29 04:11:41;;;;;;;3.20;2.83;;;;;;;14.50;100.00;164357.16;5019653;28;20137;-61
2022/07/29 04:14:06;;;;;;;4.10;2.70;;;;;;;14.48;100.00;164351.78;5020184;28;20101;-62
2022/07/29 04:16:32;;;;;;;9.55;3.22;;;;;;;14.47;100.00;164347.69;5020467;28;20446;-59
2022/07/29 04:18:57;;;;;;;7.32;3.67;;;;;;;14.48;100.00;164351.78;5024416;28;20033;-59
2022/07/29 04:21:23;;;;;;;13.27;2.88;;;;;;;14.46;100.00;164346.34;5022266;28;20172;-59
2022/07/29 04:23:51;;;;;;;3.15;2.88;;;;;;;14.44;100.00;164340.94;5022196;28;20052;-59
2022/07/29 04:26:17;;;;;;;5.35;3.38;;;;;;;14.43;100.00;164338.22;5022647;28;20492;-59
2022/07/29 04:28:43;;;;;;;6.03;3.90;;;;;;;14.44;100.00;164340.94;5021814;28;20492;-59
2022/07/29 04:31:09;;;;;;;4.93;3.10;;;;;;;14.46;100.00;164346.34;5021462;28;20033;-59
2022/07/29 04:33:34;;;;;;;5.25;3.13;;;;;;;14.46;100.00;164346.34;5022729;28;20113;-59
2022/07/29 04:36:00;;;;;;;7.80;3.17;;;;;;;14.45;100.00;164343.66;5022661;28;20037;-59
2022/07/29 04:38:25;;;;;;;4.50;3.03;;;;;;;14.48;100.00;164351.78;5020403;28;20025;-59
2022/07/29 04:40:50;;;;;;;4.35;3.40;;;;;;;14.30;100.00;164304.38;5018552;28;20095;-59
2022/07/29 04:43:16;;;;;;;8.48;3.17;;;;;;;14.13;100.00;164259.75;5024088;28;20024;-61
2022/07/29 04:45:41;;;;;;;13.10;2.95;;;;;;;14.09;100.00;164248.94;5021036;28;20088;-60
2022/07/29 04:48:07;;;;;;;15.18;3.00;;;;;;;14.10;100.00;164251.66;5020803;28;20047;-60
2022/07/29 04:50:32;;;;;;;9.65;3.50;;;;;;;14.17;100.00;164270.59;5020577;28;20037;-60
2022/07/29 04:52:58;;;;;;;8.38;2.85;;;;;;;14.21;100.00;164281.41;5018689;28;20033;-60
2022/07/29 04:55:23;;;;;;;2.85;2.30;;;;;;;14.15;100.00;164263.84;5026897;28;20041;-59
2022/07/29 04:57:48;;;;;;;5.43;2.97;;;;;;;14.11;100.00;164255.72;5033326;28;20021;-59
2022/07/29 05:00:14;;;;;;;7.50;3.20;;;;;;;14.21;100.00;164281.41;5022409;28;20400;-59
2022/07/29 05:02:39;;;;;;;10.38;3.40;;;;;;;14.26;100.00;164294.91;5018138;28;20021;-59
2022/07/29 05:05:05;;;;;;;3.03;2.67;;;;;;;14.37;100.00;164322.00;5021925;28;20037;-59
2022/07/29 05:07:30;;;;;;;7.80;3.28;;;;;;;14.43;100.00;164338.22;5023101;28;20107;-59
2022/07/29 05:09:56;;;;;;;6.25;2.97;;;;;;;14.32;100.00;164309.81;5021314;28;20099;-59
2022/07/29 05:12:23;;;;;;;5.38;3.47;;;;;;;14.36;100.00;164319.28;5022883;28;20025;-59
2022/07/29 05:14:48;;;;;;;6.20;2.92;;;;;;;14.43;100.00;164338.22;5016479;28;20056;-59
2022/07/29 05:17:13;;;;;;;9.18;3.38;;;;;;;14.38;100.00;164324.72;5031219;28;20587;-59
2022/07/29 05:19:39;;;;;;;7.38;2.83;;;;;;;14.36;100.00;164319.28;5020020;28;20077;-59
2022/07/29 05:22:04;;;;;;;9.38;3.47;;;;;;;14.32;100.00;164308.47;5016486;28;20030;-60
2022/07/29 05:24:30;;;;;;;8.27;3.00;;;;;;;14.34;100.00;164313.84;5014370;28;20049;-60
2022/07/29 05:26:55;;;;;;;3.35;2.80;;;;;;;14.34;100.00;164313.84;5018500;28;20656;-60
2022/07/29 05:29:20;;;;;;;9.23;3.03;;;;;;;14.35;100.00;164316.56;5028571;28;20041;-59
2022/07/29 05:31:46;;;;;;;12.05;3.35;;;;;;;14.37;100.00;164322.00;5030502;28;20044;-60
2022/07/29 05:34:11;;;;;;;6.25;1.95;;;;;;;14.39;100.00;164328.75;5011417;28;20022;-60
2022/07/29 05:36:36;;;;;;;12.77;3.53;;;;;;;14.41;100.00;164332.78;5012813;28;20029;-59
2022/07/29 05:39:02;;;;;;;6.68;2.97;;;;;;;14.47;100.00;164347.69;5011406;28;20030;-60
2022/07/29 05:41:27;;;;;;;9.38;2.80;;;;;;;14.54;100.00;164368.00;5019599;28;20054;-62
2022/07/29 05:43:53;;;;;;;31.45;3.75;;;;;;;14.61;100.00;164385.56;5023584;28;20598;-62
2022/07/29 05:46:19;;;;;;;9.68;2.22;;;;;;;14.66;100.00;164397.81;5028270;28;20049;-62
2022/07/29 05:48:44;;;;;;;19.35;3.92;;;;;;;14.63;100.00;164389.66;5031109;28;20037;-62
2022/07/29 05:51:10;;;;;;;7.93;3.25;;;;;;;14.68;100.00;164403.22;5028784;28;20041;-62
2022/07/29 05:53:35;;;;;;;6.40;2.33;;;;;;;14.68;100.00;164404.56;5031954;28;20025;-62
2022/07/29 05:56:04;;;;;;;11.48;2.97;;;;;;;14.69;100.00;164405.94;5029079;28;20034;-62
2022/07/29 05:58:29;;;;;;;7.18;2.90;;;;;;;14.76;100.00;164424.88;5021474;28;20882;-62
2022/07/29 06:00:58;;;;;;;5.65;2.80;;;;;;;14.75;100.00;164422.16;5016001;28;20046;-63
2022/07/29 06:03:27;;;;;;;12.13;2.67;;;;;;;14.75;100.00;164423.50;5016420;28;20422;-63
2022/07/29 06:05:52;;;;;;;5.25;2.53;;;;;;;14.80;100.00;164435.69;5029990;28;20513;-60
2022/07/29 06:08:18;;;;;;;20.50;4.50;;;;;;;14.80;100.00;164435.69;5023522;28;20151;-63
2022/07/29 06:10:43;;;;;;;3.20;1.98;;;;;;;14.81;100.00;164437.06;5019247;28;20037;-60
2022/07/29 06:13:09;;;;;;;6.43;3.00;;;;;;;14.84;100.00;164445.16;5020518;28;20079;-59
2022/07/29 06:15:34;;;;;;;6.78;2.40;;;;;;;14.89;100.00;164460.06;5019575;28;20540;-59
2022/07/29 06:18:00;;;;;;;12.07;2.92;;;;;;;14.89;100.00;164458.72;5020845;28;20026;-63
2022/07/29 06:20:25;;;;;;;6.40;2.50;;;;;;;14.80;100.00;164435.69;5018716;28;20048;-63
2022/07/29 06:22:50;;;;;;;8.60;3.35;;;;;;;14.82;100.00;164441.13;5019432;28;20025;-63
2022/07/29 06:25:16;;;;;;;16.23;2.67;;;;;;;14.92;100.00;164466.81;5020746;28;20045;-62
2022/07/29 06:27:41;;;;;;;7.03;2.72;;;;;;;14.95;100.00;164473.56;5024104;28;20111;-62
2022/07/29 06:30:07;;;;;;;6.22;2.90;;;;;;;14.94;100.00;164470.88;5019395;28;20103;-62
2022/07/29 06:32:33;;;;;;;3.97;2.58;;;;;;;14.86;100.00;164450.59;5020009;28;20026;-62
2022/07/29 06:34:58;;;;;;;4.80;3.20;;;;;;;14.91;100.00;164465.50;5020329;28;20512;-62
2022/07/29 06:37:23;;;;;;;7.30;3.05;;;;;;;14.95;100.00;164473.56;5019827;28;20017;-62
2022/07/29 06:40:59;;;;;;;9.32;2.90;;;;;;;14.88;100.00;164457.34;5017647;28;20038;-62
2022/07/29 06:42:34;;;;;;;8.82;3.13;;;;;;;14.88;100.00;164456.00;5021380;28;20042;-62
2022/07/29 06:44:59;;;;;;;7.85;4.07;;;;;;;14.81;100.00;164438.41;5014565;28;20099;-60
2022/07/29 06:47:25;;;;;;;4.72;3.38;;;;;;;14.74;100.00;164419.47;5019634;28;20029;-59
2022/07/29 06:49:50;;;;;;;10.13;4.32;;;;;;;14.67;100.00;164400.50;5015820;28;20041;-60
2022/07/29 06:52:15;;;;;;;9.38;2.97;;;;;;;14.55;100.00;164370.72;5020577;28;20030;-59
2022/07/29 06:54:47;;;;;;;11.10;4.82;;;;;;;14.45;100.00;164343.66;5019643;28;20049;-59
2022/07/29 06:57:13;;;;;;;7.03;3.83;;;;;;;14.32;100.00;164308.47;5019660;28;20024;-59
2022/07/29 06:59:38;;;;;;;7.32;4.00;;;;;;;14.24;100.00;164288.16;5019821;28;20405;-59
2022/07/29 07:02:03;;;;;;;7.13;3.72;;;;;;;14.06;100.00;164240.81;5019660;28;20033;-59
2022/07/29 07:04:29;;;;;;;11.43;5.57;;;;;;;13.92;100.00;164205.66;5018771;28;20041;-58
2022/07/29 07:06:55;;;;;;;10.88;4.43;;;;;;;13.83;100.00;164181.31;5020754;28;20021;-58
2022/07/29 07:09:20;;;;;;;8.55;5.43;;;;;;;13.77;100.00;164166.47;5019751;28;20514;-58
2022/07/29 07:11:46;;;;;;;12.25;6.07;;;;;;;13.76;100.00;164162.38;5022923;28;20025;-59
2022/07/29 07:14:11;;;;;;;8.43;4.90;;;;;;;13.64;100.00;164132.63;5018964;28;20024;-58
2022/07/29 07:16:36;;;;;;;6.80;4.57;;;;;;;13.60;100.00;164120.47;5017111;28;20021;-60
2022/07/29 07:19:02;;;;;;;6.72;4.63;;;;;;;13.62;100.00;164127.22;5018610;28;20470;-59
2022/07/29 07:21:27;;;;;;;14.07;5.93;;;;;;;13.69;100.00;164144.81;5016944;28;20053;-59
2022/07/29 07:23:53;;;;;;;10.38;4.63;;;;;;;13.75;100.00;164161.03;5020578;28;20071;-59
2022/07/29 07:26:18;;;;;;;15.43;6.15;;;;;;;13.71;100.00;164148.84;5017784;28;20401;-60
2022/07/29 07:28:44;;;;;;;10.68;4.03;;;;;;;13.79;100.00;164171.84;5015559;28;20025;-59
2022/07/29 07:31:10;;;;;;;9.40;3.97;;;;;;;13.88;100.00;164193.47;5015616;28;20042;-59
2022/07/29 07:33:35;;;;;;;6.85;3.97;;;;;;;13.92;100.00;164205.66;5022717;28;20044;-60
2022/07/29 07:36:00;;;;;;;11.02;4.18;;;;;;;13.97;100.00;164217.84;5011709;28;20053;-59
2022/07/29 07:38:26;;;;;;;6.68;4.50;;;;;;;13.94;100.00;164211.09;5017209;28;20034;-59
2022/07/29 07:40:51;;;;;;;5.05;4.55;;;;;;;13.82;100.00;164178.59;5009713;28;20472;-60
2022/07/29 07:43:16;;;;;;;7.15;3.55;;;;;;;13.89;100.00;164197.53;5015294;28;20018;-60
2022/07/29 07:45:42;;;;;;;11.18;5.30;;;;;;;13.92;100.00;164205.66;5028635;28;20050;-59
2022/07/29 07:48:09;;;;;;;13.15;5.25;;;;;;;14.00;100.00;164224.59;5012129;28;20034;-59
2022/07/29 07:50:35;;;;;;;10.93;4.95;;;;;;;14.02;100.00;164230.03;5008419;28;20038;-60
2022/07/29 07:53:01;;;;;;;6.55;4.15;;;;;;;13.90;100.00;164200.25;5010405;28;20034;-59
2022/07/29 07:55:27;;;;;;;7.00;4.78;;;;;;;13.91;100.00;164202.94;5012864;28;20050;-59
2022/07/29 07:57:54;;;;;;;11.50;6.38;;;;;;;13.92;100.00;164205.66;5010084;28;20018;-59
2022/07/29 08:00:20;;;;;;;8.25;6.90;;;;;;;13.93;100.00;164208.38;5015584;28;20124;-60
2022/07/29 08:02:46;;;;;;;8.05;5.13;;;;;;;13.98;100.00;164220.56;5029816;28;20056;-59
2022/07/29 08:05:16;;;;;;;5.90;4.85;;;;;;;13.93;100.00;164208.38;5023657;28;20042;-59
2022/07/29 08:07:45;;;;;;;13.05;8.00;;;;;;;13.98;100.00;164219.16;5017634;28;20030;-59
2022/07/29 08:10:11;;;;;;;10.50;5.57;;;;;;;14.07;100.00;164243.53;5026160;28;20046;-59
2022/07/29 08:12:37;;;;;;;10.10;5.32;;;;;;;14.17;100.00;164270.59;5029252;28;20040;-60
2022/07/29 08:15:02;;;;;;;17.52;6.32;;;;;;;14.25;100.00;164292.25;5018169;28;20481;-59
2022/07/29 08:17:28;;;;;;;11.57;5.53;;;;;;;14.31;100.00;164305.75;5009075;28;20428;-60
2022/07/29 08:19:53;;;;;;;7.95;5.55;;;;;;;14.35;100.00;164316.56;5013731;28;20452;-59
2022/07/29 08:22:19;;;;;;;8.18;5.57;;;;;;;14.38;100.00;164324.72;5026710;28;20033;-59
2022/07/29 08:24:46;;;;;;;14.57;6.10;;;;;;;14.37;100.00;164323.31;5020389;28;20092;-59
2022/07/29 08:27:12;;;;;;;14.95;6.13;;;;;;;14.34;100.00;164313.84;5028857;28;20424;-59
2022/07/29 08:29:37;;;;;;;7.85;4.60;;;;;;;14.39;100.00;164328.75;5026949;28;20041;-60
2022/07/29 08:32:03;;;;;;;7.45;4.90;;;;;;;14.44;100.00;164340.94;5029360;28;20497;-59
2022/07/29 08:34:29;;;;;;;14.57;5.38;;;;;;;14.44;100.00;164340.94;5027267;28;20069;-59
2022/07/29 08:36:55;;;;;;;6.85;5.72;;;;;;;14.48;100.00;164351.78;5028487;28;20018;-59
2022/07/29 08:39:21;;;;;;;6.18;5.65;;;;;;;14.59;100.00;164381.53;5027567;28;20025;-59
2022/07/29 08:41:47;;;;;;;7.88;5.75;;;;;;;14.49;100.00;164354.44;5026535;28;20104;-59
2022/07/29 08:44:15;;;;;;;9.00;4.95;;;;;;;14.54;100.00;164368.00;5023861;28;20029;-59
2022/07/29 08:46:40;;;;;;;11.40;6.07;;;;;;;14.69;100.00;164405.94;5014729;28;20121;-59
2022/07/29 08:49:06;;;;;;;6.25;5.18;;;;;;;14.69;100.00;164407.28;5009121;28;20021;-59
2022/07/29 08:51:33;;;;;;;7.00;6.22;;;;;;;14.59;100.00;164381.53;5018354;28;20049;-59
2022/07/29 08:53:59;;;;;;;13.18;6.88;;;;;;;14.71;100.00;164411.31;5025989;28;20076;-59
2022/07/29 08:56:25;;;;;;;9.75;6.72;;;;;;;14.81;100.00;164437.06;5023018;28;20049;-59
2022/07/29 08:58:50;;;;;;;10.93;7.22;;;;;;;14.81;100.00;164438.41;5012733;28;20099;-59
2022/07/29 09:01:20;;;;;;;8.23;6.70;;;;;;;14.78;100.00;164430.25;5016969;28;20041;-60
2022/07/29 09:03:46;;;;;;;8.15;5.15;;;;;;;14.77;100.00;164426.22;5030066;28;20531;-60
2022/07/29 09:06:17;;;;;;;14.40;6.70;;;;;;;14.79;100.00;164432.97;5011359;28;20042;-59
2022/07/29 09:08:44;;;;;;;6.82;5.47;;;;;;;14.80;100.00;164435.69;5017662;28;20104;-59
2022/07/29 09:11:11;;;;;;;8.02;7.05;;;;;;;14.86;100.00;164451.91;5015288;28;20064;-59
2022/07/29 09:13:36;;;;;;;7.93;6.55;;;;;;;14.88;100.00;164456.00;5010956;28;20029;-59
2022/07/29 09:16:02;;;;;;;10.88;6.32;;;;;;;14.93;100.00;164469.53;5010911;28;20041;-60
2022/07/29 09:18:36;;;;;;;7.90;5.85;;;;;;;14.99;100.00;164484.44;5012286;28;20084;-59
2022/07/29 09:24:11;;;;;;;13.05;5.80;;;;;;;14.95;100.00;164473.56;5012657;28;20084;-59
2022/07/29 09:26:47;;;;;;;11.60;6.53;;;;;;;14.90;100.00;164461.38;5010118;28;20115;-59
2022/07/29 09:29:16;;;;;;;7.32;5.68;;;;;;;14.88;100.00;164457.34;5012004;28;20406;-59
2022/07/29 09:31:47;;;;;;;10.32;6.07;;;;;;;14.88;100.00;164457.34;5031266;28;20094;-59
2022/07/29 09:34:15;;;;;;;7.43;6.28;;;;;;;14.89;100.00;164458.72;5030290;28;20026;-60
2022/07/29 09:36:51;;;;;;;7.47;5.38;;;;;;;14.88;100.00;164457.34;5030607;28;20036;-59
2022/07/29 09:39:32;;;;;;;7.63;5.72;;;;;;;14.80;100.00;164435.69;5030912;28;20021;-59
2022/07/29 09:42:00;;;;;;;10.10;7.40;;;;;;;14.77;100.00;164427.59;5031779;28;20500;-59
2022/07/29 09:44:26;;;;;;;11.02;5.57;;;;;;;14.70;100.00;164410.00;5030626;28;20037;-59
2022/07/29 09:47:05;;;;;;;10.40;6.68;;;;;;;14.79;100.00;164432.97;5030122;28;20030;-59
2022/07/29 09:49:31;;;;;;;9.95;6.53;;;;;;;14.77;100.00;164427.59;5029720;28;20045;-59
2022/07/29 09:52:08;;;;;;;10.68;6.55;;;;;;;14.72;100.00;164414.03;5032007;28;20025;-59
2022/07/29 09:54:37;;;;;;;12.95;7.80;;;;;;;14.64;100.00;164392.31;5027742;28;20397;-59
2022/07/29 09:57:05;;;;;;;10.20;6.15;;;;;;;14.65;100.00;164395.03;5011901;28;20109;-59
2022/07/29 09:59:30;;;;;;;8.33;6.67;;;;;;;14.69;100.00;164407.28;5023837;28;20500;-59
2022/07/29 10:01:56;;;;;;;14.07;8.07;;;;;;;14.82;100.00;164441.13;5031499;28;20029;-58
2022/07/29 10:04:22;;;;;;;13.85;7.18;;;;;;;14.94;100.00;164472.25;5029522;28;20033;-58
2022/07/29 10:07:01;;;;;;;9.15;6.78;;;;;;;15.01;100.00;164489.81;5032205;28;20025;-59
2022/07/29 10:09:27;;;;;;;17.60;10.98;;;;;;;15.10;100.00;164512.84;5025626;28;20043;-58
2022/07/29 10:12:15;;;;;;;13.05;7.32;;;;;;;15.19;100.00;164538.56;5011773;28;20048;-59
2022/07/29 10:14:41;;;;;;;7.18;6.57;;;;;;;15.25;100.00;164553.47;5011089;28;20050;-59
2022/07/29 10:17:09;;;;;;;11.55;6.68;;;;;;;15.33;100.00;164575.13;5014361;28;20025;-58
2022/07/29 10:19:35;;;;;;;18.20;8.32;;;;;;;15.34;100.00;164576.47;5010493;28;20117;-59
2022/07/29 10:22:02;;;;;;;10.18;7.63;;;;;;;15.30;100.00;164565.66;5011709;28;20113;-59
2022/07/29 10:24:30;;;;;;;12.25;7.82;;;;;;;15.22;100.00;164545.31;5009701;28;20021;-59
2022/07/29 10:26:56;;;;;;;17.58;8.10;;;;;;;15.14;100.00;164525.03;5011788;28;20529;-59
2022/07/29 10:29:22;;;;;;;21.02;10.13;;;;;;;15.04;100.00;164497.94;5010153;28;20058;-59
2022/07/29 10:32:07;;;;;;;20.73;7.80;;;;;;;15.15;100.00;164527.72;5018228;28;20110;-59
2022/07/29 10:34:32;;;;;;;7.88;6.22;;;;;;;15.03;100.00;164495.22;5029881;28;20037;-58
2022/07/29 10:37:18;;;;;;;13.52;7.75;;;;;;;14.85;100.00;164449.25;5031601;28;20101;-59
2022/07/29 10:43:17;;;;;;;10.48;8.60;;;;;;;14.68;100.00;164403.22;5011745;28;20650;-59
2022/07/29 10:45:44;;;;;;;13.68;9.88;;;;;;;14.69;100.00;164405.94;5010195;28;20037;-58
2022/07/29 10:48:09;;;;;;;11.18;9.40;;;;;;;14.72;100.00;164414.03;5011284;28;20033;-59
2022/07/29 10:50:58;;;;;;;11.82;8.50;;;;;;;14.64;100.00;164392.31;5010066;28;20055;-58
2022/07/29 10:53:31;;;;;;;10.85;8.75;;;;;;;14.64;100.00;164392.31;5011253;28;20025;-59
2022/07/29 10:55:56;;;;;;;11.68;8.15;;;;;;;14.65;100.00;164395.03;5009730;28;20044;-59
2022/07/29 10:58:23;;;;;;;13.40;10.25;;;;;;;14.74;100.00;164419.47;5010280;28;20026;-59
2022/07/29 11:00:53;;;;;;;14.35;9.10;;;;;;;14.77;100.00;164427.59;5010292;28;20501;-59
2022/07/29 11:03:40;;;;;;;10.48;8.52;;;;;;;14.81;100.00;164438.41;5025487;28;20048;-59
2022/07/29 11:06:05;;;;;;;20.58;11.10;;;;;;;14.86;100.00;164451.91;5029600;28;20038;-59
2022/07/29 11:08:31;;;;;;;11.50;9.20;;;;;;;14.94;100.00;164470.88;5030561;28;20029;-59
2022/07/29 11:11:27;;;;;;;12.85;10.20;;;;;;;15.17;100.00;164531.81;5029166;28;20505;-59
2022/07/29 11:13:54;;;;;;;15.05;10.55;;;;;;;15.44;100.00;164603.56;5030170;28;20481;-58
2022/07/29 11:16:25;;;;;;;15.40;11.63;;;;;;;15.71;100.00;164673.94;5021483;28;20048;-59
2022/07/29 11:19:12;;;;;;;21.80;11.98;;;;;;;15.96;100.00;164739.00;5011402;28;20456;-58
2022/07/29 11:21:40;;;;;;;16.23;10.73;;;;;;;16.26;100.00;164817.53;5025187;28;20061;-59
2022/07/29 11:24:12;;;;;;;13.07;10.73;;;;;;;16.69;100.00;164931.31;5030410;28;20028;-59
2022/07/29 11:26:38;;;;;;;11.35;8.80;;;;;;;17.00;100.00;165012.66;5017973;28;20064;-59